createdAt,value
2019-05-06T00:01:16.537Z,14.03
2019-05-06T00:03:46.029Z,12.97
2019-05-06T00:06:15.501Z,14.03
2019-05-06T00:08:45.011Z,14.33
2019-05-06T00:11:14.529Z,13.90
2019-05-06T00:13:44.582Z,16.13
2019-05-06T00:16:14.409Z,13.60
2019-05-06T00:18:45.040Z,16.73
2019-05-06T00:21:14.885Z,13.13
2019-05-06T00:23:49.063Z,14.10
2019-05-06T00:26:20.196Z,14.80
2019-05-06T00:28:54.219Z,15.57
2019-05-06T00:31:24.782Z,14.80
2019-05-06T00:33:54.335Z,15.97
2019-05-06T00:36:24.816Z,15.95
2019-05-06T00:38:55.955Z,15.77
2019-05-06T00:41:29.550Z,15.30
2019-05-06T00:43:59.054Z,16.25
2019-05-06T00:46:28.603Z,16.70
2019-05-06T00:48:58.072Z,15.03
2019-05-06T00:51:27.990Z,15.20
2019-05-06T00:53:59.128Z,15.63
2019-05-06T00:56:28.623Z,15.87
2019-05-06T00:58:58.121Z,14.50
2019-05-06T01:01:29.875Z,15.33
2019-05-06T01:04:18.183Z,17.03
2019-05-06T01:07:00.666Z,16.77
2019-05-06T01:09:49.508Z,17.50
2019-05-06T01:12:19.033Z,15.00
2019-05-06T01:14:50.156Z,15.70
2019-05-06T01:17:19.692Z,15.90
2019-05-06T01:19:50.061Z,18.23
2019-05-06T01:22:19.597Z,18.50
2019-05-06T01:24:49.112Z,17.63
2019-05-06T01:27:18.589Z,19.67
2019-05-06T01:30:19.737Z,18.05
2019-05-06T01:32:49.229Z,19.10
2019-05-06T01:35:18.726Z,19.50
2019-05-06T01:37:49.867Z,19.50
2019-05-06T01:40:23.964Z,19.30
2019-05-06T01:43:03.831Z,19.60
2019-05-06T01:45:34.893Z,19.37
2019-05-06T01:48:04.535Z,18.33
2019-05-06T01:50:34.504Z,16.57
2019-05-06T01:53:05.020Z,16.97
2019-05-06T01:55:34.624Z,17.20
2019-05-06T01:58:05.094Z,17.23
2019-05-06T02:00:34.684Z,18.53
2019-05-06T02:03:04.235Z,17.90
2019-05-06T02:05:33.819Z,16.57
2019-05-06T02:08:03.976Z,19.90
2019-05-06T02:10:34.973Z,18.80
2019-05-06T02:13:04.729Z,18.87
2019-05-06T02:15:34.613Z,16.50
2019-05-06T02:18:04.306Z,18.42
2019-05-06T02:20:35.227Z,16.27
2019-05-06T02:23:06.349Z,20.13
2019-05-06T02:25:40.141Z,18.10
2019-05-06T02:28:09.620Z,15.70
2019-05-06T02:30:54.743Z,17.90
2019-05-06T02:33:26.131Z,16.93
2019-05-06T02:35:57.304Z,19.47
2019-05-06T02:38:39.688Z,18.40
2019-05-06T02:41:03.167Z,20.43
2019-05-06T02:43:34.281Z,17.37
2019-05-06T02:46:04.218Z,17.50
2019-05-06T02:48:43.297Z,17.92
2019-05-06T02:51:14.004Z,17.53
2019-05-06T02:53:43.524Z,19.93
2019-05-06T02:56:14.259Z,17.47
2019-05-06T02:59:03.910Z,20.83
2019-05-06T03:01:34.411Z,22.80
2019-05-06T03:04:04.708Z,22.13
2019-05-06T03:06:34.403Z,21.30
2019-05-06T03:09:34.276Z,17.80
2019-05-06T03:12:16.469Z,25.33
2019-05-06T03:15:26.221Z,20.80
2019-05-06T03:17:55.720Z,21.57
2019-05-06T03:20:46.139Z,22.40
2019-05-06T03:23:17.285Z,22.27
2019-05-06T03:25:46.807Z,22.17
2019-05-06T03:28:16.304Z,23.50
2019-05-06T03:30:46.395Z,23.90
2019-05-06T03:33:55.434Z,22.87
2019-05-06T03:36:25.514Z,20.23
2019-05-06T03:38:48.852Z,22.47
2019-05-06T03:41:18.340Z,22.95
2019-05-06T03:44:07.187Z,20.50
2019-05-06T03:46:54.229Z,22.43
2019-05-06T03:49:25.351Z,23.40
2019-05-06T03:51:56.397Z,23.20
2019-05-06T03:54:26.531Z,23.37
2019-05-06T03:56:56.440Z,20.93
2019-05-06T03:59:27.392Z,21.20
2019-05-06T04:01:56.898Z,19.67
2019-05-06T04:04:26.386Z,19.60
2019-05-06T04:06:56.525Z,20.60
2019-05-06T04:09:26.023Z,18.90
2019-05-06T04:11:56.263Z,21.87
2019-05-06T04:14:27.273Z,18.37
2019-05-06T04:16:59.133Z,19.17
2019-05-06T04:19:33.324Z,17.23
2019-05-06T04:22:20.202Z,16.87
2019-05-06T04:25:04.147Z,15.23
2019-05-06T04:27:53.683Z,18.10
2019-05-06T04:30:24.381Z,15.27
2019-05-06T04:32:55.234Z,16.77
2019-05-06T04:35:24.804Z,15.20
2019-05-06T04:37:54.285Z,17.30
2019-05-06T04:40:24.182Z,14.50
2019-05-06T04:42:53.913Z,14.77
2019-05-06T04:45:23.893Z,14.97
2019-05-06T04:47:54.073Z,16.53
2019-05-06T04:50:24.298Z,15.10
2019-05-06T04:53:04.506Z,16.27
2019-05-06T04:55:35.649Z,16.13
2019-05-06T04:58:07.046Z,15.32
2019-05-06T05:00:37.979Z,16.00
2019-05-06T05:03:07.559Z,16.83
2019-05-06T05:05:37.040Z,15.03
2019-05-06T05:08:06.549Z,15.05
2019-05-06T05:10:43.701Z,17.20
2019-05-06T05:13:15.802Z,16.07
2019-05-06T05:15:59.114Z,17.27
2019-05-06T05:18:28.680Z,14.47
2019-05-06T05:20:58.239Z,17.80
2019-05-06T05:23:27.857Z,15.27
2019-05-06T05:26:16.674Z,14.33
2019-05-06T05:28:46.235Z,13.17
2019-05-06T05:31:15.860Z,13.67
2019-05-06T05:33:45.531Z,15.37
2019-05-06T05:36:15.019Z,13.70
2019-05-06T05:38:44.526Z,13.63
2019-05-06T05:41:14.090Z,13.27
2019-05-06T05:43:57.509Z,12.75
2019-05-06T05:46:27.055Z,12.00
2019-05-06T05:49:04.172Z,12.27
2019-05-06T05:51:34.041Z,10.23
2019-05-06T05:57:04.411Z,10.37
2019-05-06T05:59:33.939Z,11.03
2019-05-06T06:02:04.030Z,10.60
2019-05-06T06:04:33.522Z,9.50
2019-05-06T06:07:03.135Z,9.00
2019-05-06T06:09:35.219Z,11.35
2019-05-06T06:12:05.969Z,9.60
2019-05-06T06:14:43.190Z,10.37
2019-05-06T06:17:29.794Z,9.20
2019-05-06T06:20:02.622Z,9.73
2019-05-06T06:22:33.055Z,8.37
2019-05-06T06:25:04.169Z,8.03
2019-05-06T06:27:35.644Z,9.48
2019-05-06T06:30:43.500Z,8.53
2019-05-06T06:33:13.022Z,9.53
2019-05-06T06:35:44.210Z,8.37
2019-05-06T06:38:15.413Z,8.83
2019-05-06T06:40:44.915Z,6.37
2019-05-06T06:43:16.592Z,6.33
2019-05-06T06:45:46.163Z,6.07
2019-05-06T06:48:15.821Z,5.67
2019-05-06T06:50:45.459Z,4.73
2019-05-06T06:53:14.946Z,6.05
2019-05-06T06:55:44.466Z,6.53
2019-05-06T06:58:19.080Z,4.50
2019-05-06T07:01:02.981Z,5.83
2019-05-06T07:03:36.416Z,5.73
2019-05-06T07:06:12.618Z,4.33
2019-05-06T07:08:42.608Z,4.77
2019-05-06T07:11:13.045Z,5.03
2019-05-06T07:13:47.254Z,6.63
2019-05-06T07:16:16.785Z,4.53
2019-05-06T07:18:57.225Z,4.33
2019-05-06T07:21:34.068Z,6.00
2019-05-06T07:24:22.834Z,4.07
2019-05-06T07:26:54.995Z,4.03
2019-05-06T07:29:26.790Z,3.03
2019-05-06T07:31:55.694Z,4.00
2019-05-06T07:34:25.229Z,3.87
2019-05-06T07:36:54.730Z,3.53
2019-05-06T07:39:24.303Z,3.03
2019-05-06T07:41:58.946Z,6.10
2019-05-06T07:44:45.146Z,3.00
2019-05-06T07:47:16.320Z,4.00
2019-05-06T07:49:45.849Z,8.30
2019-05-06T07:52:17.288Z,3.27
2019-05-06T07:54:46.940Z,4.93
2019-05-06T07:57:16.415Z,4.40
2019-05-06T07:59:45.978Z,4.57
2019-05-06T08:02:15.467Z,7.40
2019-05-06T08:04:45.219Z,6.12
2019-05-06T08:07:14.799Z,6.30
2019-05-06T08:09:44.274Z,4.53
2019-05-06T08:12:13.838Z,4.80
2019-05-06T08:14:43.625Z,5.65
2019-05-06T08:17:16.491Z,5.08
2019-05-06T08:19:45.993Z,6.57
2019-05-06T08:22:33.355Z,5.37
2019-05-06T08:25:22.917Z,5.42
2019-05-06T08:27:53.442Z,3.80
2019-05-06T08:30:23.210Z,5.83
2019-05-06T08:32:52.934Z,6.47
2019-05-06T08:35:22.804Z,5.60
2019-05-06T08:37:53.126Z,5.43
2019-05-06T08:40:26.086Z,6.33
2019-05-06T08:42:53.961Z,6.47
2019-05-06T08:45:23.430Z,5.00
2019-05-06T08:47:52.926Z,3.20
2019-05-06T08:50:29.805Z,7.23
2019-05-06T08:53:13.904Z,4.37
2019-05-06T08:55:47.698Z,4.57
2019-05-06T08:58:17.258Z,6.00
2019-05-06T09:00:48.329Z,12.23
2019-05-06T09:03:17.897Z,4.33
2019-05-06T09:05:53.389Z,5.07
2019-05-06T09:08:24.343Z,10.87
2019-05-06T09:10:54.173Z,6.03
2019-05-06T09:13:23.685Z,8.23
2019-05-06T09:15:53.848Z,6.72
2019-05-06T09:18:24.067Z,7.17
2019-05-06T09:20:53.846Z,3.57
2019-05-06T09:23:42.645Z,3.10
2019-05-06T09:26:52.256Z,4.90
2019-05-06T09:29:26.274Z,7.03
2019-05-06T09:32:13.952Z,5.13
2019-05-06T09:34:45.299Z,3.62
2019-05-06T09:37:16.410Z,4.00
2019-05-06T09:39:47.300Z,3.27
2019-05-06T09:42:17.668Z,6.03
2019-05-06T09:44:50.600Z,4.27
2019-05-06T09:47:22.977Z,4.60
2019-05-06T09:50:24.195Z,4.23
2019-05-06T09:53:08.611Z,4.07
2019-05-06T09:55:55.747Z,9.53
2019-05-06T09:58:25.933Z,5.08
2019-05-06T10:04:08.121Z,7.50
2019-05-06T10:07:11.909Z,5.07
2019-05-06T10:09:43.385Z,5.40
2019-05-06T10:12:32.899Z,7.17
2019-05-06T10:15:03.509Z,3.43
2019-05-06T10:17:33.027Z,3.57
2019-05-06T10:20:03.046Z,4.30
2019-05-06T10:22:32.686Z,4.93
2019-05-06T10:25:03.628Z,5.42
2019-05-06T10:27:34.593Z,3.48
2019-05-06T10:30:12.505Z,3.97
2019-05-06T10:32:46.467Z,2.75
2019-05-06T10:35:16.287Z,3.47
2019-05-06T10:38:26.003Z,4.23
2019-05-06T10:41:05.068Z,3.27
2019-05-06T10:43:52.577Z,4.67
2019-05-06T10:46:22.618Z,3.80
2019-05-06T10:48:53.023Z,7.77
2019-05-06T10:51:39.948Z,4.63
2019-05-06T10:54:09.552Z,2.73
2019-05-06T10:56:50.811Z,4.37
2019-05-06T10:59:12.970Z,3.13
2019-05-06T11:01:44.206Z,3.67
2019-05-06T11:04:13.834Z,5.00
2019-05-06T11:07:04.057Z,8.50
2019-05-06T11:09:33.891Z,4.00
2019-05-06T11:12:03.472Z,3.47
2019-05-06T11:14:33.192Z,2.10
2019-05-06T11:17:04.843Z,5.17
2019-05-06T11:19:33.871Z,50.77
2019-05-06T11:22:03.755Z,57.80
2019-05-06T11:24:33.321Z,21.73
2019-05-06T11:30:05.385Z,17.13
2019-05-06T11:33:07.125Z,5.73
2019-05-06T11:35:52.827Z,7.83
2019-05-06T11:38:22.853Z,5.30
2019-05-06T11:40:53.272Z,3.40
2019-05-06T11:43:22.950Z,7.87
2019-05-06T11:45:52.516Z,3.40
2019-05-06T11:48:22.464Z,5.53
2019-05-06T11:50:53.657Z,4.00
2019-05-06T11:53:23.341Z,2.60
2019-05-06T11:55:54.861Z,7.07
2019-05-06T11:58:42.732Z,3.93
2019-05-06T12:01:21.405Z,3.83
2019-05-06T12:03:52.154Z,4.83
2019-05-06T12:06:22.716Z,5.80
2019-05-06T12:08:52.608Z,3.37
2019-05-06T12:11:23.642Z,3.67
2019-05-06T12:13:53.507Z,4.27
2019-05-06T12:16:42.323Z,5.05
2019-05-06T12:19:13.189Z,3.40
2019-05-06T12:21:43.215Z,2.93
2019-05-06T12:24:12.758Z,4.03
2019-05-06T12:26:42.947Z,4.12
2019-05-06T12:29:12.801Z,4.47
2019-05-06T12:31:42.496Z,3.07
2019-05-06T12:34:14.520Z,3.63
2019-05-06T12:36:43.132Z,6.37
2019-05-06T12:42:26.383Z,4.13
2019-05-06T12:44:57.511Z,5.07
2019-05-06T12:47:28.639Z,3.00
2019-05-06T12:49:58.115Z,3.07
2019-05-06T12:52:27.855Z,3.70
2019-05-06T12:55:14.746Z,6.07
2019-05-06T12:57:29.844Z,6.00
2019-05-06T12:59:59.321Z,4.63
2019-05-06T13:02:28.846Z,3.40
2019-05-06T13:05:00.954Z,3.95
2019-05-06T13:07:32.403Z,3.70
2019-05-06T13:10:02.830Z,4.03
2019-05-06T13:12:33.672Z,3.87
2019-05-06T13:15:07.667Z,3.97
2019-05-06T13:17:35.082Z,4.13
2019-05-06T13:20:06.676Z,6.00
2019-05-06T13:22:46.595Z,5.22
2019-05-06T13:25:16.463Z,4.95
2019-05-06T13:27:46.853Z,3.70
2019-05-06T13:30:16.970Z,4.27
2019-05-06T13:33:18.722Z,3.20
2019-05-06T13:35:48.256Z,3.73
2019-05-06T13:38:17.761Z,5.23
2019-05-06T13:40:53.913Z,3.40
2019-05-06T13:43:18.277Z,3.43
2019-05-06T13:45:52.302Z,5.10
2019-05-06T13:48:34.167Z,3.57
2019-05-06T13:51:08.982Z,4.30
2019-05-06T13:53:40.646Z,3.27
2019-05-06T13:56:11.962Z,4.20
2019-05-06T13:58:43.036Z,4.03
2019-05-06T14:01:16.980Z,3.60
2019-05-06T14:03:46.480Z,3.73
2019-05-06T14:06:16.019Z,3.60
2019-05-06T14:08:45.556Z,6.73
2019-05-06T14:11:15.027Z,20.52
2019-05-06T14:13:44.504Z,5.47
2019-05-06T14:16:14.018Z,4.80
2019-05-06T14:18:43.516Z,4.45
2019-05-06T14:21:14.800Z,3.73
2019-05-06T14:24:04.689Z,4.58
2019-05-06T14:26:44.810Z,3.30
2019-05-06T14:29:23.420Z,4.20
2019-05-06T14:31:57.134Z,2.90
2019-05-06T14:34:26.627Z,4.53
2019-05-06T14:36:56.197Z,3.83
2019-05-06T14:39:44.711Z,2.83
2019-05-06T14:41:58.502Z,3.33
2019-05-06T14:44:28.013Z,3.33
2019-05-06T14:47:12.638Z,4.07
2019-05-06T14:49:43.152Z,3.47
2019-05-06T14:52:13.345Z,6.87
2019-05-06T14:54:44.591Z,4.83
2019-05-06T14:57:14.742Z,3.87
2019-05-06T14:59:44.280Z,4.62
2019-05-06T15:02:13.731Z,5.97
2019-05-06T15:04:44.101Z,5.87
2019-05-06T15:07:13.563Z,4.17
2019-05-06T15:09:55.707Z,4.10
2019-05-06T15:12:14.351Z,5.30
2019-05-06T15:14:43.842Z,10.47
2019-05-06T15:17:14.403Z,10.03
2019-05-06T15:19:44.037Z,6.30
2019-05-06T15:22:13.511Z,4.13
2019-05-06T15:24:43.024Z,5.70
2019-05-06T15:27:12.495Z,5.40
2019-05-06T15:29:43.661Z,3.67
2019-05-06T15:32:14.836Z,6.23
2019-05-06T15:34:45.980Z,3.87
2019-05-06T15:37:17.716Z,4.27
2019-05-06T15:39:47.199Z,5.03
2019-05-06T15:42:16.676Z,4.90
2019-05-06T15:44:46.149Z,4.12
2019-05-06T15:47:15.632Z,6.27
2019-05-06T15:49:45.102Z,5.00
2019-05-06T15:52:14.636Z,5.17
2019-05-06T15:54:44.129Z,6.87
2019-05-06T15:57:13.667Z,6.40
2019-05-06T16:00:15.680Z,3.27
2019-05-06T16:02:57.613Z,5.40
2019-05-06T16:05:27.107Z,8.17
2019-05-06T16:07:56.645Z,5.47
2019-05-06T16:10:26.170Z,5.87
2019-05-06T16:12:55.664Z,5.33
2019-05-06T16:15:26.397Z,5.37
2019-05-06T16:17:56.855Z,5.60
2019-05-06T16:20:26.359Z,4.50
2019-05-06T16:22:57.480Z,3.47
2019-05-06T16:25:26.971Z,7.33
2019-05-06T16:27:57.393Z,4.37
2019-05-06T16:30:26.857Z,5.80
2019-05-06T16:32:56.364Z,5.27
2019-05-06T16:35:25.859Z,3.47
2019-05-06T16:37:55.338Z,8.30
2019-05-06T16:40:45.459Z,4.80
2019-05-06T16:43:26.389Z,4.70
2019-05-06T16:46:08.984Z,5.13
2019-05-06T16:48:38.493Z,4.43
2019-05-06T16:51:07.969Z,6.45
2019-05-06T16:53:52.370Z,4.27
2019-05-06T16:56:28.870Z,6.57
2019-05-06T16:59:05.265Z,5.67
2019-05-06T17:01:36.374Z,7.28
2019-05-06T17:04:08.370Z,6.00
2019-05-06T17:06:42.918Z,6.40
2019-05-06T17:09:20.978Z,5.60
2019-05-06T17:11:43.831Z,4.30
2019-05-06T17:14:13.328Z,20.13
2019-05-06T17:16:42.905Z,6.30
2019-05-06T17:19:32.431Z,6.13
2019-05-06T17:22:22.908Z,8.13
2019-05-06T17:24:53.497Z,6.87
2019-05-06T17:27:23.619Z,9.00
2019-05-06T17:30:00.965Z,10.35
2019-05-06T17:32:34.842Z,7.20
2019-05-06T17:35:07.396Z,28.80
2019-05-06T17:37:47.606Z,21.57
2019-05-06T17:40:19.246Z,64.97
2019-05-06T17:42:48.760Z,37.50
2019-05-06T17:45:36.572Z,9.40
2019-05-06T17:48:16.725Z,52.80
2019-05-06T17:50:47.885Z,13.13
2019-05-06T17:56:38.668Z,7.07
2019-05-06T17:59:08.151Z,5.27
2019-05-06T18:02:12.387Z,6.73
2019-05-06T18:04:43.098Z,7.00
2019-05-06T18:07:12.694Z,7.80
2019-05-06T18:09:42.725Z,18.17
2019-05-06T18:12:12.328Z,9.30
2019-05-06T18:14:43.460Z,6.27
2019-05-06T18:17:14.402Z,10.33
2019-05-06T18:19:43.888Z,8.37
2019-05-06T18:22:13.397Z,7.90
2019-05-06T18:24:42.868Z,9.50
2019-05-06T18:27:13.091Z,6.10
2019-05-06T18:29:43.004Z,10.87
2019-05-06T18:32:12.772Z,8.57
2019-05-06T18:34:42.251Z,8.50
2019-05-06T18:37:12.758Z,7.77
2019-05-06T18:39:42.653Z,7.90
2019-05-06T18:42:19.160Z,13.53
2019-05-06T18:44:43.532Z,13.60
2019-05-06T18:47:13.094Z,9.23
2019-05-06T18:53:03.639Z,15.08
2019-05-06T18:55:33.373Z,13.37
2019-05-06T18:58:02.886Z,8.20
2019-05-06T19:00:32.398Z,8.00
2019-05-06T19:03:02.680Z,8.13
2019-05-06T19:05:39.697Z,9.57
2019-05-06T19:08:21.880Z,9.60
2019-05-06T19:13:52.519Z,8.90
2019-05-06T19:16:22.360Z,12.03
2019-05-06T19:18:52.341Z,10.10
2019-05-06T19:21:24.268Z,10.90
2019-05-06T19:23:54.917Z,10.07
2019-05-06T19:26:24.503Z,7.07
2019-05-06T19:28:53.990Z,9.93
2019-05-06T19:31:24.016Z,8.93
2019-05-06T19:33:53.488Z,5.07
2019-05-06T19:36:42.393Z,6.77
2019-05-06T19:39:12.801Z,7.72
2019-05-06T19:41:42.244Z,7.70
2019-05-06T19:44:12.888Z,6.47
2019-05-06T19:46:42.539Z,7.07
2019-05-06T19:49:12.014Z,7.50
2019-05-06T19:51:42.854Z,5.90
2019-05-06T19:54:12.733Z,6.93
2019-05-06T19:56:42.461Z,5.45
2019-05-06T19:59:12.924Z,4.90
2019-05-06T20:01:43.066Z,8.17
2019-05-06T20:04:13.294Z,5.80
2019-05-06T20:06:59.522Z,7.00
2019-05-06T20:09:34.403Z,5.43
2019-05-06T20:12:05.543Z,7.50
2019-05-06T20:14:35.045Z,5.57
2019-05-06T20:17:04.643Z,5.23
2019-05-06T20:19:34.179Z,6.00
2019-05-06T20:22:03.776Z,7.30
2019-05-06T20:24:33.410Z,6.77
2019-05-06T20:27:02.948Z,8.20
2019-05-06T20:29:35.186Z,7.70
2019-05-06T20:32:03.624Z,31.50
2019-05-06T20:34:33.316Z,83.00
2019-05-06T20:37:02.797Z,47.77
2019-05-06T20:39:32.336Z,92.80
2019-05-06T20:42:02.890Z,106.67
2019-05-06T20:44:32.620Z,8.60
2019-05-06T20:47:03.083Z,20.97
2019-05-06T20:49:33.321Z,11.27
2019-05-06T20:52:02.859Z,18.20
2019-05-06T20:54:51.695Z,38.10
2019-05-06T20:57:23.039Z,13.00
2019-05-06T20:59:52.717Z,11.80
2019-05-06T21:02:25.620Z,21.57
2019-05-06T21:04:53.695Z,10.93
2019-05-06T21:07:23.250Z,12.27
2019-05-06T21:09:52.803Z,7.23
2019-05-06T21:12:22.288Z,6.23
2019-05-06T21:14:51.757Z,8.93
2019-05-06T21:17:42.002Z,5.53
2019-05-06T21:20:14.030Z,11.73
2019-05-06T21:22:43.367Z,5.22
2019-05-06T21:25:13.542Z,4.90
2019-05-06T21:27:43.021Z,6.28
2019-05-06T21:30:13.248Z,5.60
2019-05-06T21:32:42.876Z,4.70
2019-05-06T21:35:12.731Z,4.65
2019-05-06T21:37:42.455Z,5.03
2019-05-06T21:40:32.347Z,8.30
2019-05-06T21:43:15.203Z,8.53
2019-05-06T21:46:04.020Z,4.83
2019-05-06T21:48:33.777Z,6.77
2019-05-06T21:51:03.260Z,4.60
2019-05-06T21:53:32.754Z,5.73
2019-05-06T21:56:02.328Z,6.63
2019-05-06T21:58:31.772Z,5.00
2019-05-06T22:01:07.247Z,5.65
2019-05-06T22:03:36.799Z,5.40
2019-05-06T22:06:06.391Z,5.73
2019-05-06T22:08:35.852Z,6.57
2019-05-06T22:11:05.489Z,5.17
2019-05-06T22:13:34.967Z,6.87
2019-05-06T22:16:05.421Z,5.55
2019-05-06T22:18:34.928Z,5.67
2019-05-06T22:21:06.175Z,7.17
2019-05-06T22:23:54.846Z,5.58
2019-05-06T22:26:24.728Z,6.20
2019-05-06T22:28:54.626Z,5.40
2019-05-06T22:31:25.130Z,5.15
2019-05-06T22:33:54.836Z,6.40
2019-05-06T22:36:24.499Z,5.13
2019-05-06T22:38:54.768Z,6.60
2019-05-06T22:41:25.495Z,5.00
2019-05-06T22:43:55.089Z,4.07
2019-05-06T22:46:24.591Z,4.17
2019-05-06T22:48:54.673Z,4.47
2019-05-06T22:51:24.475Z,5.57
2019-05-06T22:53:53.943Z,4.40
2019-05-06T22:56:23.434Z,5.70
2019-05-06T22:58:52.930Z,5.60
2019-05-06T23:01:24.057Z,5.47
2019-05-06T23:06:52.938Z,6.73
2019-05-06T23:09:22.901Z,4.70
2019-05-06T23:11:53.647Z,5.27
2019-05-06T23:14:31.304Z,3.57
2019-05-06T23:17:13.662Z,4.60
2019-05-06T23:19:43.147Z,5.40
2019-05-06T23:22:12.690Z,5.40
2019-05-06T23:24:42.185Z,5.87
2019-05-06T23:27:31.014Z,3.80
2019-05-06T23:30:19.881Z,4.20
2019-05-06T23:32:49.372Z,4.12
2019-05-06T23:35:18.858Z,3.40
2019-05-06T23:38:43.025Z,4.43
2019-05-06T23:42:06.646Z,3.90
2019-05-06T23:45:32.304Z,4.73
2019-05-06T23:48:55.342Z,4.17
2019-05-06T23:52:18.809Z,4.83
2019-05-06T23:55:44.101Z,5.42
2019-05-06T23:58:14.522Z,5.07
